createdAt,value
2023-04-18T00:03:42.216Z,7.60
2023-04-18T00:07:45.353Z,7.03
2023-04-18T00:11:49.654Z,7.60
2023-04-18T00:15:54.128Z,8.40
2023-04-18T00:19:58.282Z,7.70
2023-04-18T00:24:00.950Z,8.40
2023-04-18T00:28:05.210Z,8.07
2023-04-18T00:32:07.974Z,7.40
2023-04-18T00:36:10.808Z,7.83
2023-04-18T00:40:13.738Z,7.67
2023-04-18T00:44:17.766Z,7.73
2023-04-18T00:48:20.463Z,8.37
2023-04-18T00:52:23.206Z,7.27
2023-04-18T00:56:26.694Z,7.97
2023-04-18T01:00:33.342Z,8.23
2023-04-18T01:04:36.237Z,7.47
2023-04-18T01:08:39.063Z,7.27
2023-04-18T01:12:41.781Z,7.73
2023-04-18T01:16:47.264Z,7.40
2023-04-18T01:20:50.822Z,7.80
2023-04-18T01:24:54.957Z,7.27
2023-04-18T01:28:57.611Z,7.27
2023-04-18T01:33:01.632Z,8.40
2023-04-18T01:37:04.611Z,7.77
2023-04-18T01:41:09.166Z,7.47
2023-04-18T01:45:12.760Z,7.40
2023-04-18T01:49:15.901Z,8.23
2023-04-18T01:53:19.232Z,7.97
2023-04-18T01:57:23.797Z,10.40
2023-04-18T02:01:26.525Z,7.97
2023-04-18T02:05:30.682Z,9.67
2023-04-18T02:09:33.298Z,8.23
2023-04-18T02:13:37.571Z,9.63
2023-04-18T02:17:41.623Z,7.47
2023-04-18T02:21:44.899Z,8.00
2023-04-18T02:25:47.617Z,8.30
2023-04-18T02:29:51.943Z,7.70
2023-04-18T02:33:54.656Z,8.40
2023-04-18T02:37:57.456Z,8.13
2023-04-18T02:42:01.544Z,8.47
2023-04-18T02:46:05.839Z,8.00
2023-04-18T02:50:09.631Z,8.10
2023-04-18T02:54:12.567Z,9.67
2023-04-18T02:58:15.629Z,8.10
2023-04-18T03:02:20.900Z,7.73
2023-04-18T03:06:23.973Z,8.03
2023-04-18T03:10:26.986Z,9.00
2023-04-18T03:14:30.185Z,8.23
2023-04-18T03:18:34.198Z,8.33
2023-04-18T03:22:36.849Z,8.63
2023-04-18T03:26:39.553Z,8.20
2023-04-18T03:30:42.691Z,9.17
2023-04-18T03:34:46.749Z,8.10
2023-04-18T03:38:49.908Z,8.27
2023-04-18T03:42:53.027Z,8.53
2023-04-18T03:46:55.925Z,8.80
2023-04-18T03:51:00.435Z,8.03
2023-04-18T03:55:07.867Z,9.00
2023-04-18T03:59:13.948Z,8.50
2023-04-18T04:03:17.044Z,8.60
2023-04-18T04:07:22.586Z,9.77
2023-04-18T04:11:25.479Z,9.00
2023-04-18T04:15:28.156Z,8.83
2023-04-18T04:19:30.876Z,9.27
2023-04-18T04:23:34.917Z,8.33
2023-04-18T04:27:39.891Z,8.97
2023-04-18T04:31:42.932Z,8.87
2023-04-18T04:35:46.592Z,9.00
2023-04-18T04:39:50.904Z,9.57
2023-04-18T04:43:53.888Z,9.07
2023-04-18T04:47:56.613Z,9.90
2023-04-18T04:52:01.441Z,10.37
2023-04-18T04:56:07.068Z,9.77
2023-04-18T05:00:14.179Z,10.00
2023-04-18T05:04:17.663Z,10.53
2023-04-18T05:08:21.276Z,9.93
2023-04-18T05:12:28.466Z,10.10
2023-04-18T05:16:31.517Z,9.93
2023-04-18T05:20:34.544Z,10.50
2023-04-18T05:24:37.281Z,13.47
2023-04-18T05:28:41.651Z,10.70
2023-04-18T05:32:44.664Z,10.37
2023-04-18T05:36:48.485Z,10.93
2023-04-18T05:40:51.974Z,12.40
2023-04-18T05:44:56.511Z,12.77
2023-04-18T05:48:59.473Z,11.83
2023-04-18T05:53:02.424Z,11.50
2023-04-18T05:57:05.142Z,12.77
2023-04-18T06:01:09.662Z,11.13
2023-04-18T06:05:13.330Z,11.73
2023-04-18T06:09:16.233Z,11.67
2023-04-18T06:13:18.874Z,12.17
2023-04-18T06:17:23.218Z,11.90
2023-04-18T06:21:26.897Z,12.40
2023-04-18T06:25:29.634Z,11.63
2023-04-18T06:29:33.261Z,12.07
2023-04-18T06:33:38.568Z,12.40
2023-04-18T06:37:44.043Z,10.67
2023-04-18T06:41:46.924Z,12.43
2023-04-18T06:45:49.647Z,12.37
2023-04-18T06:49:53.749Z,12.83
2023-04-18T06:53:56.433Z,12.23
2023-04-18T06:58:00.413Z,11.33
2023-04-18T07:02:03.088Z,10.87
2023-04-18T07:06:08.887Z,10.87
2023-04-18T07:10:11.930Z,10.87
2023-04-18T07:14:14.992Z,10.80
2023-04-18T07:18:30.136Z,9.77
2023-04-18T07:22:38.681Z,9.53
2023-04-18T07:26:41.675Z,9.63
2023-04-18T07:30:44.342Z,9.33
2023-04-18T07:34:50.701Z,8.10
2023-04-18T07:38:55.161Z,7.70
2023-04-18T07:42:57.851Z,7.73
2023-04-18T07:47:00.515Z,6.80
2023-04-18T07:51:03.885Z,6.17
2023-04-18T07:55:09.124Z,6.37
2023-04-18T07:59:12.853Z,5.60
2023-04-18T08:03:16.220Z,6.83
2023-04-18T08:07:21.145Z,7.70
2023-04-18T08:11:26.720Z,8.20
2023-04-18T08:15:31.608Z,8.43
2023-04-18T08:19:34.248Z,7.67
2023-04-18T08:23:36.850Z,7.87
2023-04-18T08:27:41.530Z,6.77
2023-04-18T08:31:44.246Z,8.53
2023-04-18T08:35:46.958Z,7.20
2023-04-18T08:39:49.746Z,7.47
2023-04-18T08:43:55.927Z,7.40
2023-04-18T08:48:01.453Z,8.33
2023-04-18T08:52:06.387Z,7.77
2023-04-18T08:56:10.398Z,7.20
2023-04-18T09:00:16.242Z,7.53
2023-04-18T09:04:34.707Z,6.87
2023-04-18T09:08:38.220Z,6.37
2023-04-18T09:12:50.006Z,7.03
2023-04-18T09:16:56.081Z,6.43
2023-04-18T09:21:18.554Z,6.13
2023-04-18T09:25:34.488Z,6.07
2023-04-18T09:29:46.538Z,6.60
2023-04-18T09:33:58.951Z,4.93
2023-04-18T09:38:01.941Z,5.50
2023-04-18T09:42:04.890Z,5.20
2023-04-18T09:46:08.823Z,4.90
2023-04-18T09:50:21.465Z,4.70
2023-04-18T09:54:27.797Z,5.00
2023-04-18T09:58:33.898Z,5.30
2023-04-18T10:02:48.659Z,5.17
2023-04-18T10:06:53.692Z,5.17
2023-04-18T10:10:58.585Z,4.57
2023-04-18T10:15:04.576Z,5.07
2023-04-18T10:19:24.145Z,5.10
2023-04-18T10:23:49.031Z,4.67
2023-04-18T10:27:59.871Z,4.87
2023-04-18T10:32:07.181Z,4.90
2023-04-18T10:36:18.697Z,5.30
2023-04-18T10:40:35.714Z,5.07
2023-04-18T10:44:38.374Z,8.30
2023-04-18T10:48:41.069Z,4.20
2023-04-18T10:52:44.353Z,4.27
2023-04-18T10:56:54.629Z,4.70
2023-04-18T11:00:57.655Z,4.37
2023-04-18T11:05:04.538Z,4.80
2023-04-18T11:09:10.879Z,5.00
2023-04-18T11:13:15.281Z,5.30
2023-04-18T11:17:22.220Z,4.70
2023-04-18T11:21:29.156Z,5.90
2023-04-18T11:25:36.355Z,4.90
2023-04-18T11:29:40.461Z,5.97
2023-04-18T11:33:43.105Z,5.90
2023-04-18T11:37:46.445Z,5.83
2023-04-18T11:41:51.258Z,5.73
2023-04-18T11:45:58.814Z,6.80
2023-04-18T11:50:02.928Z,6.50
2023-04-18T11:54:05.750Z,6.83
2023-04-18T11:58:08.456Z,7.10
2023-04-18T12:02:16.836Z,7.07
2023-04-18T12:06:20.163Z,7.37
2023-04-18T12:10:28.045Z,6.97
2023-04-18T12:14:33.116Z,7.10
2023-04-18T12:18:37.236Z,6.30
2023-04-18T12:22:44.637Z,6.50
2023-04-18T12:26:47.322Z,6.90
2023-04-18T12:30:50.309Z,8.63
2023-04-18T12:34:54.382Z,6.50
2023-04-18T12:38:57.275Z,6.53
2023-04-18T12:43:02.198Z,6.27
2023-04-18T12:47:06.611Z,5.80
2023-04-18T12:51:10.736Z,6.10
2023-04-18T12:55:14.376Z,5.93
2023-04-18T12:59:17.167Z,5.93
2023-04-18T13:03:20.113Z,5.27
2023-04-18T13:07:24.246Z,5.27
2023-04-18T13:11:28.571Z,6.43
2023-04-18T13:15:31.433Z,6.03
2023-04-18T13:19:34.115Z,6.43
2023-04-18T13:23:40.623Z,6.67
2023-04-18T13:27:44.795Z,6.70
2023-04-18T13:31:48.010Z,5.70
2023-04-18T13:35:50.820Z,5.80
2023-04-18T13:39:55.058Z,6.10
2023-04-18T13:43:57.770Z,5.93
2023-04-18T13:48:00.815Z,5.80
2023-04-18T13:52:04.280Z,6.17
2023-04-18T13:56:08.852Z,7.30
2023-04-18T14:00:13.983Z,5.70
2023-04-18T14:04:17.180Z,6.80
2023-04-18T14:08:20.099Z,6.07
2023-04-18T14:12:24.439Z,6.67
2023-04-18T14:16:28.233Z,7.00
2023-04-18T14:20:35.276Z,6.83
2023-04-18T14:24:37.948Z,7.13
2023-04-18T14:28:42.512Z,7.23
2023-04-18T14:32:45.768Z,7.57
2023-04-18T14:36:48.859Z,7.83
2023-04-18T14:40:54.520Z,6.70
2023-04-18T14:44:58.557Z,7.37
2023-04-18T14:49:01.293Z,7.70
2023-04-18T14:53:04.109Z,7.77
2023-04-18T14:57:08.389Z,8.40
2023-04-18T15:01:12.479Z,7.60
2023-04-18T15:05:15.577Z,6.53
2023-04-18T15:09:18.437Z,7.57
2023-04-18T15:13:21.854Z,6.50
2023-04-18T15:17:29.320Z,7.00
2023-04-18T15:21:32.071Z,7.17
2023-04-18T15:25:35.748Z,6.73
2023-04-18T15:29:38.885Z,6.53
2023-04-18T15:33:43.048Z,7.30
2023-04-18T15:37:45.728Z,7.57
2023-04-18T15:41:48.486Z,7.53
2023-04-18T15:45:51.943Z,6.53
2023-04-18T15:49:56.284Z,7.00
2023-04-18T15:53:58.963Z,6.60
2023-04-18T15:58:01.817Z,6.60
2023-04-18T16:02:06.283Z,7.17
2023-04-18T16:06:10.971Z,6.23
2023-04-18T16:10:15.162Z,6.30
2023-04-18T16:14:18.276Z,6.83
2023-04-18T16:18:23.397Z,7.90
2023-04-18T16:22:27.522Z,8.37
2023-04-18T16:26:30.591Z,8.70
2023-04-18T16:30:33.481Z,8.70
2023-04-18T16:34:36.147Z,7.50
2023-04-18T16:38:40.215Z,7.63
2023-04-18T16:42:42.995Z,8.03
2023-04-18T16:46:46.010Z,7.40
2023-04-18T16:50:48.757Z,8.20
2023-04-18T16:54:53.934Z,8.37
2023-04-18T16:58:56.714Z,8.47
2023-04-18T17:02:59.604Z,9.10
2023-04-18T17:07:02.487Z,9.47
2023-04-18T17:11:07.937Z,9.30
2023-04-18T17:15:11.530Z,8.87
2023-04-18T17:19:14.660Z,11.90
2023-04-18T17:23:17.622Z,10.23
2023-04-18T17:27:21.974Z,10.67
2023-04-18T17:31:24.766Z,10.43
2023-04-18T17:35:27.509Z,12.03
2023-04-18T17:39:32.207Z,10.93
2023-04-18T17:43:36.572Z,10.40
2023-04-18T17:47:40.746Z,10.70
2023-04-18T17:51:43.749Z,11.37
2023-04-18T17:55:48.888Z,11.13
2023-04-18T17:59:56.745Z,13.03
2023-04-18T18:04:00.298Z,12.63
2023-04-18T18:08:03.128Z,11.77
2023-04-18T18:12:06.294Z,13.47
2023-04-18T18:16:10.583Z,18.20
2023-04-18T18:20:17.964Z,15.70
2023-04-18T18:24:20.673Z,11.10
2023-04-18T18:28:23.463Z,11.37
2023-04-18T18:32:29.397Z,10.17
2023-04-18T18:36:32.192Z,11.10
2023-04-18T18:40:35.308Z,10.93
2023-04-18T18:44:37.999Z,10.80
2023-04-18T18:48:42.223Z,11.37
2023-04-18T18:52:47.767Z,10.77
2023-04-18T18:56:51.750Z,11.17
2023-04-18T19:00:56.100Z,10.80
2023-04-18T19:05:00.394Z,10.00
2023-04-18T19:09:05.156Z,10.27
2023-04-18T19:13:08.168Z,12.20
2023-04-18T19:17:10.965Z,11.57
2023-04-18T19:21:15.559Z,10.30
2023-04-18T19:25:22.845Z,11.13
2023-04-18T19:29:25.835Z,10.90
2023-04-18T19:33:31.641Z,10.30
2023-04-18T19:37:37.295Z,9.83
2023-04-18T19:41:41.958Z,9.90
2023-04-18T19:45:44.722Z,11.83
2023-04-18T19:49:47.411Z,10.37
2023-04-18T19:53:51.525Z,9.80
2023-04-18T19:57:55.919Z,11.10
2023-04-18T20:02:01.460Z,10.50
2023-04-18T20:06:06.771Z,11.40
2023-04-18T20:10:11.754Z,11.17
2023-04-18T20:14:14.408Z,11.17
2023-04-18T20:18:17.130Z,10.90
2023-04-18T20:22:20.270Z,11.07
2023-04-18T20:26:24.328Z,10.40
2023-04-18T20:30:27.155Z,9.77
2023-04-18T20:34:30.047Z,10.40
2023-04-18T20:38:32.688Z,9.57
2023-04-18T20:42:38.857Z,11.07
2023-04-18T20:46:41.646Z,9.93
2023-04-18T20:50:50.750Z,9.27
2023-04-18T20:54:53.422Z,10.27
2023-04-18T20:58:57.726Z,9.93
2023-04-18T21:03:00.674Z,9.27
2023-04-18T21:07:03.558Z,9.83
2023-04-18T21:11:06.745Z,9.60
2023-04-18T21:15:11.734Z,9.60
2023-04-18T21:19:14.531Z,11.33
2023-04-18T21:23:17.322Z,9.07
2023-04-18T21:27:20.037Z,9.30
2023-04-18T21:31:24.283Z,9.10
2023-04-18T21:35:31.578Z,9.27
2023-04-18T21:39:34.636Z,9.17
2023-04-18T21:43:38.958Z,8.90
2023-04-18T21:47:43.210Z,9.10
2023-04-18T21:51:48.881Z,9.23
2023-04-18T21:55:51.613Z,8.97
2023-04-18T21:59:55.651Z,7.60
2023-04-18T22:03:59.826Z,8.50
2023-04-18T22:08:03.430Z,7.80
2023-04-18T22:12:06.857Z,7.77
2023-04-18T22:16:11.202Z,7.70
2023-04-18T22:20:15.619Z,8.33
2023-04-18T22:24:19.664Z,7.83
2023-04-18T22:28:23.481Z,7.83
2023-04-18T22:32:26.190Z,8.23
2023-04-18T22:36:32.397Z,7.67
2023-04-18T22:40:35.110Z,8.70
2023-04-18T22:44:38.295Z,7.33
2023-04-18T22:48:41.558Z,8.07
2023-04-18T22:52:45.624Z,7.53
2023-04-18T22:56:50.553Z,8.10
2023-04-18T23:00:54.247Z,7.67
2023-04-18T23:05:02.329Z,8.07
2023-04-18T23:09:08.349Z,8.00
2023-04-18T23:13:11.829Z,7.00
2023-04-18T23:17:15.829Z,7.57
2023-04-18T23:21:19.981Z,7.47
2023-04-18T23:25:25.391Z,7.23
2023-04-18T23:29:28.538Z,8.77
2023-04-18T23:33:31.776Z,7.83
2023-04-18T23:37:34.562Z,7.03
2023-04-18T23:41:39.146Z,7.70
2023-04-18T23:45:41.811Z,7.20
2023-04-18T23:49:44.510Z,8.23
2023-04-18T23:53:47.229Z,6.83
2023-04-18T23:57:51.666Z,7.73
